sensor_id;sensor_type;location;lat;lon;timestamp;P1;durP1;ratioP1;P2;durP2;ratioP2
15132;SDS011;7667;51.232;17.110;2022-12-20T00:01:46;21.73;;;16.00;;
15132;SDS011;7667;51.232;17.110;2022-12-20T00:04:14;23.63;;;15.97;;
15132;SDS011;7667;51.232;17.110;2022-12-20T00:06:41;23.37;;;15.30;;
15132;SDS011;7667;51.232;17.110;2022-12-20T00:09:10;23.77;;;14.83;;
15132;SDS011;7667;51.232;17.110;2022-12-20T00:11:38;22.07;;;14.97;;
15132;SDS011;7667;51.232;17.110;2022-12-20T00:14:07;21.63;;;14.80;;
15132;SDS011;7667;51.232;17.110;2022-12-20T00:16:36;21.67;;;14.30;;
15132;SDS011;7667;51.232;17.110;2022-12-20T00:19:05;23.57;;;14.37;;
15132;SDS011;7667;51.232;17.110;2022-12-20T00:21:33;20.43;;;13.93;;
15132;SDS011;7667;51.232;17.110;2022-12-20T00:24:01;20.90;;;13.70;;
15132;SDS011;7667;51.232;17.110;2022-12-20T00:26:32;23.70;;;15.67;;
15132;SDS011;7667;51.232;17.110;2022-12-20T00:29:01;22.20;;;15.37;;
15132;SDS011;7667;51.232;17.110;2022-12-20T00:31:29;20.70;;;13.57;;
15132;SDS011;7667;51.232;17.110;2022-12-20T00:33:58;19.93;;;13.10;;
15132;SDS011;7667;51.232;17.110;2022-12-20T00:36:27;20.03;;;13.90;;
15132;SDS011;7667;51.232;17.110;2022-12-20T00:38:57;22.67;;;14.37;;
15132;SDS011;7667;51.232;17.110;2022-12-20T00:41:27;20.17;;;13.67;;
15132;SDS011;7667;51.232;17.110;2022-12-20T00:43:58;20.03;;;12.97;;
15132;SDS011;7667;51.232;17.110;2022-12-20T00:46:26;19.93;;;12.43;;
15132;SDS011;7667;51.232;17.110;2022-12-20T00:48:54;19.77;;;12.63;;
15132;SDS011;7667;51.232;17.110;2022-12-20T00:51:23;19.93;;;13.13;;
15132;SDS011;7667;51.232;17.110;2022-12-20T00:53:54;20.57;;;13.27;;
15132;SDS011;7667;51.232;17.110;2022-12-20T00:56:22;19.40;;;13.17;;
15132;SDS011;7667;51.232;17.110;2022-12-20T00:58:51;20.63;;;14.07;;
15132;SDS011;7667;51.232;17.110;2022-12-20T01:01:23;21.13;;;13.87;;
15132;SDS011;7667;51.232;17.110;2022-12-20T01:03:54;23.67;;;17.03;;
15132;SDS011;7667;51.232;17.110;2022-12-20T01:06:22;25.53;;;19.07;;
15132;SDS011;7667;51.232;17.110;2022-12-20T01:08:51;21.53;;;17.27;;
15132;SDS011;7667;51.232;17.110;2022-12-20T01:11:21;24.33;;;17.97;;
15132;SDS011;7667;51.232;17.110;2022-12-20T01:13:52;18.93;;;13.67;;
15132;SDS011;7667;51.232;17.110;2022-12-20T01:16:26;21.53;;;14.63;;
15132;SDS011;7667;51.232;17.110;2022-12-20T01:19:04;19.77;;;13.60;;
15132;SDS011;7667;51.232;17.110;2022-12-20T01:21:34;18.40;;;12.60;;
15132;SDS011;7667;51.232;17.110;2022-12-20T01:24:02;21.27;;;13.43;;
15132;SDS011;7667;51.232;17.110;2022-12-20T01:26:30;20.70;;;14.10;;
15132;SDS011;7667;51.232;17.110;2022-12-20T01:28:58;20.00;;;13.20;;
15132;SDS011;7667;51.232;17.110;2022-12-20T01:31:26;22.37;;;14.63;;
15132;SDS011;7667;51.232;17.110;2022-12-20T01:33:55;28.43;;;18.17;;
15132;SDS011;7667;51.232;17.110;2022-12-20T01:36:25;25.83;;;17.07;;
15132;SDS011;7667;51.232;17.110;2022-12-20T01:38:59;24.43;;;16.30;;
15132;SDS011;7667;51.232;17.110;2022-12-20T01:41:34;23.10;;;16.73;;
15132;SDS011;7667;51.232;17.110;2022-12-20T01:44:04;21.77;;;15.33;;
15132;SDS011;7667;51.232;17.110;2022-12-20T01:46:52;21.23;;;15.90;;
15132;SDS011;7667;51.232;17.110;2022-12-20T01:49:31;19.10;;;12.93;;
15132;SDS011;7667;51.232;17.110;2022-12-20T01:52:06;19.03;;;12.93;;
15132;SDS011;7667;51.232;17.110;2022-12-20T01:55:08;19.53;;;13.17;;
15132;SDS011;7667;51.232;17.110;2022-12-20T01:57:44;18.90;;;13.37;;
15132;SDS011;7667;51.232;17.110;2022-12-20T02:00:17;19.90;;;13.63;;
15132;SDS011;7667;51.232;17.110;2022-12-20T02:02:46;20.37;;;13.77;;
15132;SDS011;7667;51.232;17.110;2022-12-20T02:05:16;20.90;;;13.70;;
15132;SDS011;7667;51.232;17.110;2022-12-20T02:07:48;17.60;;;12.03;;
15132;SDS011;7667;51.232;17.110;2022-12-20T02:10:20;18.27;;;12.47;;
15132;SDS011;7667;51.232;17.110;2022-12-20T02:12:51;19.27;;;13.60;;
15132;SDS011;7667;51.232;17.110;2022-12-20T02:15:48;21.50;;;14.83;;
15132;SDS011;7667;51.232;17.110;2022-12-20T02:18:31;19.17;;;13.63;;
15132;SDS011;7667;51.232;17.110;2022-12-20T02:30:13;21.23;;;14.30;;
15132;SDS011;7667;51.232;17.110;2022-12-20T02:32:47;22.23;;;14.93;;
15132;SDS011;7667;51.232;17.110;2022-12-20T02:35:30;20.70;;;13.63;;
15132;SDS011;7667;51.232;17.110;2022-12-20T02:38:02;25.10;;;17.07;;
15132;SDS011;7667;51.232;17.110;2022-12-20T02:41:10;18.60;;;13.73;;
15132;SDS011;7667;51.232;17.110;2022-12-20T02:43:48;18.47;;;12.80;;
15132;SDS011;7667;51.232;17.110;2022-12-20T02:46:40;18.13;;;12.40;;
15132;SDS011;7667;51.232;17.110;2022-12-20T02:49:09;17.73;;;11.60;;
15132;SDS011;7667;51.232;17.110;2022-12-20T02:51:43;18.80;;;13.13;;
15132;SDS011;7667;51.232;17.110;2022-12-20T02:54:14;21.13;;;15.10;;
15132;SDS011;7667;51.232;17.110;2022-12-20T02:56:44;19.57;;;14.43;;
15132;SDS011;7667;51.232;17.110;2022-12-20T02:59:41;21.13;;;14.83;;
15132;SDS011;7667;51.232;17.110;2022-12-20T03:02:16;21.47;;;14.80;;
15132;SDS011;7667;51.232;17.110;2022-12-20T03:04:44;21.27;;;14.23;;
15132;SDS011;7667;51.232;17.110;2022-12-20T03:07:14;19.70;;;13.20;;
15132;SDS011;7667;51.232;17.110;2022-12-20T03:09:43;19.20;;;12.57;;
15132;SDS011;7667;51.232;17.110;2022-12-20T03:12:11;18.40;;;12.90;;
15132;SDS011;7667;51.232;17.110;2022-12-20T03:14:41;21.73;;;14.27;;
15132;SDS011;7667;51.232;17.110;2022-12-20T03:17:09;18.93;;;13.23;;
15132;SDS011;7667;51.232;17.110;2022-12-20T03:19:36;19.87;;;13.27;;
15132;SDS011;7667;51.232;17.110;2022-12-20T03:22:04;19.30;;;14.43;;
15132;SDS011;7667;51.232;17.110;2022-12-20T03:24:32;18.73;;;12.30;;
15132;SDS011;7667;51.232;17.110;2022-12-20T03:26:59;17.40;;;11.90;;
15132;SDS011;7667;51.232;17.110;2022-12-20T03:29:27;20.03;;;13.17;;
15132;SDS011;7667;51.232;17.110;2022-12-20T03:31:54;19.00;;;13.40;;
15132;SDS011;7667;51.232;17.110;2022-12-20T03:34:22;22.33;;;13.60;;
15132;SDS011;7667;51.232;17.110;2022-12-20T03:36:49;20.30;;;14.27;;
15132;SDS011;7667;51.232;17.110;2022-12-20T03:39:17;19.87;;;14.37;;
15132;SDS011;7667;51.232;17.110;2022-12-20T03:41:44;18.03;;;12.67;;
15132;SDS011;7667;51.232;17.110;2022-12-20T03:44:12;20.60;;;13.77;;
15132;SDS011;7667;51.232;17.110;2022-12-20T03:46:39;21.40;;;14.10;;
15132;SDS011;7667;51.232;17.110;2022-12-20T03:49:07;24.83;;;17.20;;
15132;SDS011;7667;51.232;17.110;2022-12-20T03:51:34;19.40;;;13.43;;
15132;SDS011;7667;51.232;17.110;2022-12-20T03:54:02;18.63;;;12.63;;
15132;SDS011;7667;51.232;17.110;2022-12-20T03:56:29;20.23;;;14.33;;
15132;SDS011;7667;51.232;17.110;2022-12-20T03:58:57;22.17;;;16.37;;
15132;SDS011;7667;51.232;17.110;2022-12-20T04:01:25;19.93;;;13.57;;
15132;SDS011;7667;51.232;17.110;2022-12-20T04:03:54;19.50;;;13.37;;
15132;SDS011;7667;51.232;17.110;2022-12-20T04:06:22;20.53;;;14.60;;
15132;SDS011;7667;51.232;17.110;2022-12-20T04:08:50;19.83;;;13.07;;
15132;SDS011;7667;51.232;17.110;2022-12-20T04:11:17;20.57;;;14.07;;
15132;SDS011;7667;51.232;17.110;2022-12-20T04:13:46;20.13;;;13.03;;
15132;SDS011;7667;51.232;17.110;2022-12-20T04:16:17;23.37;;;15.87;;
15132;SDS011;7667;51.232;17.110;2022-12-20T04:18:48;24.90;;;16.93;;
15132;SDS011;7667;51.232;17.110;2022-12-20T04:21:19;19.97;;;13.13;;
15132;SDS011;7667;51.232;17.110;2022-12-20T04:23:53;20.93;;;14.10;;
15132;SDS011;7667;51.232;17.110;2022-12-20T04:26:21;19.00;;;13.23;;
15132;SDS011;7667;51.232;17.110;2022-12-20T04:28:49;25.13;;;15.77;;
15132;SDS011;7667;51.232;17.110;2022-12-20T04:31:17;19.53;;;12.90;;
15132;SDS011;7667;51.232;17.110;2022-12-20T04:33:49;20.47;;;14.40;;
15132;SDS011;7667;51.232;17.110;2022-12-20T04:36:17;19.33;;;13.17;;
15132;SDS011;7667;51.232;17.110;2022-12-20T04:38:45;18.17;;;12.10;;
15132;SDS011;7667;51.232;17.110;2022-12-20T04:41:12;18.33;;;12.60;;
15132;SDS011;7667;51.232;17.110;2022-12-20T04:43:48;22.30;;;14.83;;
15132;SDS011;7667;51.232;17.110;2022-12-20T04:46:18;28.87;;;18.90;;
15132;SDS011;7667;51.232;17.110;2022-12-20T04:48:46;25.63;;;17.83;;
15132;SDS011;7667;51.232;17.110;2022-12-20T04:51:24;21.10;;;14.83;;
15132;SDS011;7667;51.232;17.110;2022-12-20T04:53:52;22.10;;;14.77;;
15132;SDS011;7667;51.232;17.110;2022-12-20T04:56:23;24.07;;;16.77;;
15132;SDS011;7667;51.232;17.110;2022-12-20T04:58:54;19.83;;;14.23;;
15132;SDS011;7667;51.232;17.110;2022-12-20T05:01:24;20.47;;;12.77;;
15132;SDS011;7667;51.232;17.110;2022-12-20T05:03:52;20.67;;;13.83;;
15132;SDS011;7667;51.232;17.110;2022-12-20T05:06:21;20.33;;;13.13;;
15132;SDS011;7667;51.232;17.110;2022-12-20T05:08:49;19.00;;;12.60;;
15132;SDS011;7667;51.232;17.110;2022-12-20T05:11:16;18.73;;;13.37;;
15132;SDS011;7667;51.232;17.110;2022-12-20T05:13:43;19.70;;;13.60;;
15132;SDS011;7667;51.232;17.110;2022-12-20T05:16:11;22.87;;;14.97;;
15132;SDS011;7667;51.232;17.110;2022-12-20T05:18:39;20.77;;;14.23;;
15132;SDS011;7667;51.232;17.110;2022-12-20T05:21:14;22.07;;;13.87;;
15132;SDS011;7667;51.232;17.110;2022-12-20T05:24:00;21.43;;;14.73;;
15132;SDS011;7667;51.232;17.110;2022-12-20T05:26:46;23.00;;;15.30;;
15132;SDS011;7667;51.232;17.110;2022-12-20T05:29:13;20.63;;;13.90;;
15132;SDS011;7667;51.232;17.110;2022-12-20T05:31:42;20.83;;;13.63;;
15132;SDS011;7667;51.232;17.110;2022-12-20T05:34:10;19.63;;;13.07;;
15132;SDS011;7667;51.232;17.110;2022-12-20T05:36:37;21.73;;;13.87;;
15132;SDS011;7667;51.232;17.110;2022-12-20T05:39:04;20.37;;;14.83;;
15132;SDS011;7667;51.232;17.110;2022-12-20T05:41:32;23.13;;;16.30;;
15132;SDS011;7667;51.232;17.110;2022-12-20T05:43:59;20.90;;;14.73;;
15132;SDS011;7667;51.232;17.110;2022-12-20T05:46:27;22.47;;;14.63;;
15132;SDS011;7667;51.232;17.110;2022-12-20T05:48:55;22.57;;;15.00;;
15132;SDS011;7667;51.232;17.110;2022-12-20T05:51:22;20.73;;;14.50;;
15132;SDS011;7667;51.232;17.110;2022-12-20T05:53:50;20.60;;;14.70;;
15132;SDS011;7667;51.232;17.110;2022-12-20T05:56:17;23.13;;;15.07;;
15132;SDS011;7667;51.232;17.110;2022-12-20T05:58:45;22.47;;;14.77;;
15132;SDS011;7667;51.232;17.110;2022-12-20T06:01:12;22.20;;;14.60;;
15132;SDS011;7667;51.232;17.110;2022-12-20T06:03:40;21.67;;;14.67;;
15132;SDS011;7667;51.232;17.110;2022-12-20T06:06:07;24.47;;;14.50;;
15132;SDS011;7667;51.232;17.110;2022-12-20T06:08:40;21.43;;;14.60;;
15132;SDS011;7667;51.232;17.110;2022-12-20T06:11:09;25.33;;;16.83;;
15132;SDS011;7667;51.232;17.110;2022-12-20T06:13:37;23.63;;;16.67;;
15132;SDS011;7667;51.232;17.110;2022-12-20T06:16:04;25.73;;;16.00;;
15132;SDS011;7667;51.232;17.110;2022-12-20T06:18:33;23.57;;;15.20;;
15132;SDS011;7667;51.232;17.110;2022-12-20T06:21:00;23.97;;;16.63;;
15132;SDS011;7667;51.232;17.110;2022-12-20T06:23:28;22.00;;;15.43;;
15132;SDS011;7667;51.232;17.110;2022-12-20T06:25:55;24.30;;;15.27;;
15132;SDS011;7667;51.232;17.110;2022-12-20T06:28:23;24.87;;;15.93;;
15132;SDS011;7667;51.232;17.110;2022-12-20T06:30:54;24.30;;;16.83;;
15132;SDS011;7667;51.232;17.110;2022-12-20T06:33:23;34.00;;;21.60;;
15132;SDS011;7667;51.232;17.110;2022-12-20T06:35:51;26.67;;;17.17;;
15132;SDS011;7667;51.232;17.110;2022-12-20T06:38:19;24.17;;;15.20;;
15132;SDS011;7667;51.232;17.110;2022-12-20T06:40:46;24.40;;;16.07;;
15132;SDS011;7667;51.232;17.110;2022-12-20T06:43:14;29.40;;;18.07;;
15132;SDS011;7667;51.232;17.110;2022-12-20T06:45:42;24.03;;;15.93;;
15132;SDS011;7667;51.232;17.110;2022-12-20T06:48:10;22.63;;;14.60;;
15132;SDS011;7667;51.232;17.110;2022-12-20T06:50:38;21.03;;;14.27;;
15132;SDS011;7667;51.232;17.110;2022-12-20T06:53:05;27.80;;;18.33;;
15132;SDS011;7667;51.232;17.110;2022-12-20T06:55:33;26.97;;;17.23;;
15132;SDS011;7667;51.232;17.110;2022-12-20T06:58:02;28.37;;;17.67;;
15132;SDS011;7667;51.232;17.110;2022-12-20T07:00:30;28.53;;;18.80;;
15132;SDS011;7667;51.232;17.110;2022-12-20T07:02:58;29.90;;;19.27;;
15132;SDS011;7667;51.232;17.110;2022-12-20T07:05:26;26.07;;;17.43;;
15132;SDS011;7667;51.232;17.110;2022-12-20T07:07:53;24.77;;;16.10;;
15132;SDS011;7667;51.232;17.110;2022-12-20T07:10:21;27.03;;;16.10;;
15132;SDS011;7667;51.232;17.110;2022-12-20T07:12:48;25.67;;;15.80;;
15132;SDS011;7667;51.232;17.110;2022-12-20T07:15:16;23.37;;;14.90;;
15132;SDS011;7667;51.232;17.110;2022-12-20T07:17:43;24.93;;;15.23;;
15132;SDS011;7667;51.232;17.110;2022-12-20T07:20:11;25.77;;;17.37;;
15132;SDS011;7667;51.232;17.110;2022-12-20T07:22:40;24.07;;;14.80;;
15132;SDS011;7667;51.232;17.110;2022-12-20T07:25:09;24.13;;;14.80;;
15132;SDS011;7667;51.232;17.110;2022-12-20T07:27:37;25.60;;;15.47;;
15132;SDS011;7667;51.232;17.110;2022-12-20T07:30:04;24.47;;;15.33;;
15132;SDS011;7667;51.232;17.110;2022-12-20T07:32:33;24.23;;;16.30;;
15132;SDS011;7667;51.232;17.110;2022-12-20T07:35:00;23.00;;;15.27;;
15132;SDS011;7667;51.232;17.110;2022-12-20T07:37:28;21.23;;;14.73;;
15132;SDS011;7667;51.232;17.110;2022-12-20T07:39:56;26.20;;;15.77;;
15132;SDS011;7667;51.232;17.110;2022-12-20T07:42:23;23.40;;;14.90;;
15132;SDS011;7667;51.232;17.110;2022-12-20T07:45:01;34.10;;;22.60;;
15132;SDS011;7667;51.232;17.110;2022-12-20T07:47:29;22.47;;;15.20;;
15132;SDS011;7667;51.232;17.110;2022-12-20T07:49:56;23.10;;;15.10;;
15132;SDS011;7667;51.232;17.110;2022-12-20T07:52:24;26.03;;;16.97;;
15132;SDS011;7667;51.232;17.110;2022-12-20T07:54:55;24.67;;;15.67;;
15132;SDS011;7667;51.232;17.110;2022-12-20T07:57:28;26.07;;;16.00;;
15132;SDS011;7667;51.232;17.110;2022-12-20T08:00:03;24.37;;;15.10;;
15132;SDS011;7667;51.232;17.110;2022-12-20T08:02:34;27.43;;;16.80;;
15132;SDS011;7667;51.232;17.110;2022-12-20T08:05:06;26.07;;;16.73;;
15132;SDS011;7667;51.232;17.110;2022-12-20T08:07:35;24.43;;;15.27;;
15132;SDS011;7667;51.232;17.110;2022-12-20T08:10:06;25.60;;;15.60;;
15132;SDS011;7667;51.232;17.110;2022-12-20T08:12:37;25.10;;;15.47;;
15132;SDS011;7667;51.232;17.110;2022-12-20T08:15:07;26.57;;;15.27;;
15132;SDS011;7667;51.232;17.110;2022-12-20T08:17:35;28.10;;;16.43;;
15132;SDS011;7667;51.232;17.110;2022-12-20T08:20:02;25.90;;;15.60;;
15132;SDS011;7667;51.232;17.110;2022-12-20T08:22:32;24.93;;;15.10;;
15132;SDS011;7667;51.232;17.110;2022-12-20T08:25:00;25.73;;;15.90;;
15132;SDS011;7667;51.232;17.110;2022-12-20T08:27:28;26.40;;;15.60;;
15132;SDS011;7667;51.232;17.110;2022-12-20T08:29:55;25.53;;;15.77;;
15132;SDS011;7667;51.232;17.110;2022-12-20T08:32:22;25.43;;;15.47;;
15132;SDS011;7667;51.232;17.110;2022-12-20T08:34:51;27.50;;;17.73;;
15132;SDS011;7667;51.232;17.110;2022-12-20T08:37:19;25.63;;;15.80;;
15132;SDS011;7667;51.232;17.110;2022-12-20T08:39:46;26.43;;;15.97;;
15132;SDS011;7667;51.232;17.110;2022-12-20T08:42:14;25.67;;;16.00;;
15132;SDS011;7667;51.232;17.110;2022-12-20T08:44:41;25.33;;;15.00;;
15132;SDS011;7667;51.232;17.110;2022-12-20T08:47:10;25.23;;;15.40;;
15132;SDS011;7667;51.232;17.110;2022-12-20T08:49:37;25.40;;;15.53;;
15132;SDS011;7667;51.232;17.110;2022-12-20T08:52:12;24.20;;;15.07;;
15132;SDS011;7667;51.232;17.110;2022-12-20T08:54:40;26.17;;;16.10;;
15132;SDS011;7667;51.232;17.110;2022-12-20T08:57:08;26.53;;;16.07;;
15132;SDS011;7667;51.232;17.110;2022-12-20T08:59:35;25.77;;;15.17;;
15132;SDS011;7667;51.232;17.110;2022-12-20T09:02:03;25.67;;;16.03;;
15132;SDS011;7667;51.232;17.110;2022-12-20T09:04:31;29.23;;;16.57;;
15132;SDS011;7667;51.232;17.110;2022-12-20T09:06:59;25.13;;;15.93;;
15132;SDS011;7667;51.232;17.110;2022-12-20T09:09:27;26.03;;;15.73;;
15132;SDS011;7667;51.232;17.110;2022-12-20T09:11:54;26.17;;;15.77;;
15132;SDS011;7667;51.232;17.110;2022-12-20T09:14:22;26.90;;;15.37;;
15132;SDS011;7667;51.232;17.110;2022-12-20T09:16:50;23.73;;;15.17;;
15132;SDS011;7667;51.232;17.110;2022-12-20T09:19:17;24.67;;;14.83;;
15132;SDS011;7667;51.232;17.110;2022-12-20T09:21:45;23.50;;;13.87;;
15132;SDS011;7667;51.232;17.110;2022-12-20T09:24:12;25.50;;;15.47;;
15132;SDS011;7667;51.232;17.110;2022-12-20T09:26:40;26.07;;;14.70;;
15132;SDS011;7667;51.232;17.110;2022-12-20T09:29:11;26.90;;;15.70;;
15132;SDS011;7667;51.232;17.110;2022-12-20T09:31:38;25.40;;;13.33;;
15132;SDS011;7667;51.232;17.110;2022-12-20T09:34:07;23.13;;;14.70;;
15132;SDS011;7667;51.232;17.110;2022-12-20T09:36:35;24.97;;;14.97;;
15132;SDS011;7667;51.232;17.110;2022-12-20T09:39:03;22.97;;;14.00;;
15132;SDS011;7667;51.232;17.110;2022-12-20T09:41:38;24.27;;;13.53;;
15132;SDS011;7667;51.232;17.110;2022-12-20T09:44:13;23.53;;;14.10;;
15132;SDS011;7667;51.232;17.110;2022-12-20T09:47:14;23.73;;;14.90;;
15132;SDS011;7667;51.232;17.110;2022-12-20T09:49:47;23.87;;;14.50;;
15132;SDS011;7667;51.232;17.110;2022-12-20T10:00:55;22.23;;;13.87;;
15132;SDS011;7667;51.232;17.110;2022-12-20T10:03:31;26.50;;;16.27;;
15132;SDS011;7667;51.232;17.110;2022-12-20T10:09:04;22.00;;;12.87;;
15132;SDS011;7667;51.232;17.110;2022-12-20T10:23:27;26.17;;;16.80;;
15132;SDS011;7667;51.232;17.110;2022-12-20T10:26:23;25.50;;;16.93;;
15132;SDS011;7667;51.232;17.110;2022-12-20T10:28:50;26.90;;;15.90;;
15132;SDS011;7667;51.232;17.110;2022-12-20T10:31:20;29.23;;;16.30;;
15132;SDS011;7667;51.232;17.110;2022-12-20T10:33:48;30.70;;;16.43;;
15132;SDS011;7667;51.232;17.110;2022-12-20T10:39:04;27.43;;;16.43;;
15132;SDS011;7667;51.232;17.110;2022-12-20T10:46:58;31.87;;;18.23;;
15132;SDS011;7667;51.232;17.110;2022-12-20T10:49:28;34.30;;;19.27;;
15132;SDS011;7667;51.232;17.110;2022-12-20T10:52:07;47.00;;;23.17;;
15132;SDS011;7667;51.232;17.110;2022-12-20T10:54:39;49.37;;;23.97;;
15132;SDS011;7667;51.232;17.110;2022-12-20T10:59:59;39.37;;;19.60;;
15132;SDS011;7667;51.232;17.110;2022-12-20T11:02:32;35.60;;;17.53;;
15132;SDS011;7667;51.232;17.110;2022-12-20T11:08:05;26.03;;;14.23;;
15132;SDS011;7667;51.232;17.110;2022-12-20T11:11:12;26.83;;;14.60;;
15132;SDS011;7667;51.232;17.110;2022-12-20T11:13:43;32.70;;;16.63;;
15132;SDS011;7667;51.232;17.110;2022-12-20T11:19:05;34.50;;;17.23;;
15132;SDS011;7667;51.232;17.110;2022-12-20T11:22:13;39.53;;;22.17;;
15132;SDS011;7667;51.232;17.110;2022-12-20T11:27:36;32.13;;;18.77;;
15132;SDS011;7667;51.232;17.110;2022-12-20T11:33:32;25.40;;;14.37;;
15132;SDS011;7667;51.232;17.110;2022-12-20T11:48:23;25.17;;;14.80;;
15132;SDS011;7667;51.232;17.110;2022-12-20T11:56:36;24.20;;;13.77;;
15132;SDS011;7667;51.232;17.110;2022-12-20T12:01:54;23.43;;;14.53;;
15132;SDS011;7667;51.232;17.110;2022-12-20T12:04:57;27.37;;;15.63;;
15132;SDS011;7667;51.232;17.110;2022-12-20T12:07:31;25.60;;;15.10;;
15132;SDS011;7667;51.232;17.110;2022-12-20T12:13:02;29.03;;;14.37;;
15132;SDS011;7667;51.232;17.110;2022-12-20T12:15:36;26.80;;;15.33;;
15132;SDS011;7667;51.232;17.110;2022-12-20T12:18:21;28.17;;;14.87;;
15132;SDS011;7667;51.232;17.110;2022-12-20T12:20:55;28.67;;;16.13;;
15132;SDS011;7667;51.232;17.110;2022-12-20T12:26:32;27.40;;;16.20;;
15132;SDS011;7667;51.232;17.110;2022-12-20T12:29:16;28.53;;;16.73;;
15132;SDS011;7667;51.232;17.110;2022-12-20T12:32:07;27.67;;;16.30;;
15132;SDS011;7667;51.232;17.110;2022-12-20T12:47:21;30.10;;;17.80;;
15132;SDS011;7667;51.232;17.110;2022-12-20T12:50:07;30.67;;;19.20;;
15132;SDS011;7667;51.232;17.110;2022-12-20T12:52:57;26.53;;;16.43;;
15132;SDS011;7667;51.232;17.110;2022-12-20T12:55:45;27.73;;;16.37;;
15132;SDS011;7667;51.232;17.110;2022-12-20T13:00:52;27.33;;;15.83;;
15132;SDS011;7667;51.232;17.110;2022-12-20T13:03:36;28.87;;;16.37;;
15132;SDS011;7667;51.232;17.110;2022-12-20T13:11:52;27.87;;;16.83;;
15132;SDS011;7667;51.232;17.110;2022-12-20T13:19:50;26.13;;;15.97;;
15132;SDS011;7667;51.232;17.110;2022-12-20T13:22:24;27.43;;;15.50;;
15132;SDS011;7667;51.232;17.110;2022-12-20T13:24:54;27.37;;;15.90;;
15132;SDS011;7667;51.232;17.110;2022-12-20T13:40:48;27.73;;;17.80;;
15132;SDS011;7667;51.232;17.110;2022-12-20T13:43:27;27.30;;;15.80;;
15132;SDS011;7667;51.232;17.110;2022-12-20T13:46:03;28.33;;;15.67;;
15132;SDS011;7667;51.232;17.110;2022-12-20T13:48:49;25.87;;;16.23;;
15132;SDS011;7667;51.232;17.110;2022-12-20T13:51:21;28.10;;;16.97;;
15132;SDS011;7667;51.232;17.110;2022-12-20T13:53:57;25.47;;;16.17;;
15132;SDS011;7667;51.232;17.110;2022-12-20T13:59:35;35.00;;;20.13;;
15132;SDS011;7667;51.232;17.110;2022-12-20T14:02:03;34.43;;;19.40;;
15132;SDS011;7667;51.232;17.110;2022-12-20T14:04:45;31.87;;;19.20;;
15132;SDS011;7667;51.232;17.110;2022-12-20T14:07:24;28.43;;;17.67;;
15132;SDS011;7667;51.232;17.110;2022-12-20T14:09:56;30.30;;;18.30;;
15132;SDS011;7667;51.232;17.110;2022-12-20T14:12:29;32.30;;;18.17;;
15132;SDS011;7667;51.232;17.110;2022-12-20T14:15:18;29.43;;;16.87;;
15132;SDS011;7667;51.232;17.110;2022-12-20T14:17:48;30.07;;;18.03;;
15132;SDS011;7667;51.232;17.110;2022-12-20T14:20:17;29.10;;;16.73;;
15132;SDS011;7667;51.232;17.110;2022-12-20T14:31:23;36.70;;;21.67;;
15132;SDS011;7667;51.232;17.110;2022-12-20T14:34:13;33.27;;;20.10;;
15132;SDS011;7667;51.232;17.110;2022-12-20T14:39:54;32.33;;;21.27;;
15132;SDS011;7667;51.232;17.110;2022-12-20T14:42:25;32.20;;;20.57;;
15132;SDS011;7667;51.232;17.110;2022-12-20T14:45:14;32.93;;;20.07;;
15132;SDS011;7667;51.232;17.110;2022-12-20T14:50:30;31.03;;;19.40;;
15132;SDS011;7667;51.232;17.110;2022-12-20T14:53:00;29.37;;;19.13;;
15132;SDS011;7667;51.232;17.110;2022-12-20T14:58:21;33.77;;;20.60;;
15132;SDS011;7667;51.232;17.110;2022-12-20T15:00:59;37.83;;;22.80;;
15132;SDS011;7667;51.232;17.110;2022-12-20T15:03:54;33.60;;;20.87;;
15132;SDS011;7667;51.232;17.110;2022-12-20T15:06:34;32.50;;;20.53;;
15132;SDS011;7667;51.232;17.110;2022-12-20T15:09:14;34.13;;;20.43;;
15132;SDS011;7667;51.232;17.110;2022-12-20T15:11:42;33.37;;;21.63;;
15132;SDS011;7667;51.232;17.110;2022-12-20T15:14:20;32.23;;;19.53;;
15132;SDS011;7667;51.232;17.110;2022-12-20T15:17:03;29.57;;;18.23;;
15132;SDS011;7667;51.232;17.110;2022-12-20T15:19:36;32.27;;;19.00;;
15132;SDS011;7667;51.232;17.110;2022-12-20T15:22:17;33.17;;;20.60;;
15132;SDS011;7667;51.232;17.110;2022-12-20T15:24:46;32.23;;;20.67;;
15132;SDS011;7667;51.232;17.110;2022-12-20T15:27:14;31.47;;;21.53;;
15132;SDS011;7667;51.232;17.110;2022-12-20T15:29:42;29.70;;;19.90;;
15132;SDS011;7667;51.232;17.110;2022-12-20T15:32:23;31.07;;;19.93;;
15132;SDS011;7667;51.232;17.110;2022-12-20T15:34:55;74.63;;;39.57;;
15132;SDS011;7667;51.232;17.110;2022-12-20T15:37:22;38.07;;;23.57;;
15132;SDS011;7667;51.232;17.110;2022-12-20T15:39:50;67.13;;;33.53;;
15132;SDS011;7667;51.232;17.110;2022-12-20T15:42:17;147.90;;;59.60;;
15132;SDS011;7667;51.232;17.110;2022-12-20T15:44:46;60.67;;;31.63;;
15132;SDS011;7667;51.232;17.110;2022-12-20T15:47:13;99.27;;;43.20;;
15132;SDS011;7667;51.232;17.110;2022-12-20T15:49:42;111.93;;;49.60;;
15132;SDS011;7667;51.232;17.110;2022-12-20T15:52:19;97.60;;;45.47;;
15132;SDS011;7667;51.232;17.110;2022-12-20T15:54:48;36.23;;;22.60;;
15132;SDS011;7667;51.232;17.110;2022-12-20T15:57:16;31.27;;;19.70;;
15132;SDS011;7667;51.232;17.110;2022-12-20T15:59:44;29.97;;;19.20;;
15132;SDS011;7667;51.232;17.110;2022-12-20T16:02:29;31.57;;;19.13;;
15132;SDS011;7667;51.232;17.110;2022-12-20T16:04:58;31.13;;;19.33;;
15132;SDS011;7667;51.232;17.110;2022-12-20T16:07:27;30.47;;;19.07;;
15132;SDS011;7667;51.232;17.110;2022-12-20T16:09:54;30.03;;;18.67;;
15132;SDS011;7667;51.232;17.110;2022-12-20T16:12:24;29.97;;;18.93;;
15132;SDS011;7667;51.232;17.110;2022-12-20T16:14:58;29.10;;;17.93;;
15132;SDS011;7667;51.232;17.110;2022-12-20T16:17:26;30.40;;;18.17;;
15132;SDS011;7667;51.232;17.110;2022-12-20T16:19:53;30.83;;;18.00;;
15132;SDS011;7667;51.232;17.110;2022-12-20T16:22:21;32.27;;;18.83;;
15132;SDS011;7667;51.232;17.110;2022-12-20T16:24:49;31.83;;;18.50;;
15132;SDS011;7667;51.232;17.110;2022-12-20T16:27:17;28.17;;;18.10;;
15132;SDS011;7667;51.232;17.110;2022-12-20T16:29:45;28.00;;;18.03;;
15132;SDS011;7667;51.232;17.110;2022-12-20T16:32:14;28.50;;;18.27;;
15132;SDS011;7667;51.232;17.110;2022-12-20T16:34:44;28.67;;;18.63;;
15132;SDS011;7667;51.232;17.110;2022-12-20T16:37:12;30.90;;;18.90;;
15132;SDS011;7667;51.232;17.110;2022-12-20T16:39:40;35.90;;;20.50;;
15132;SDS011;7667;51.232;17.110;2022-12-20T16:42:12;30.33;;;19.83;;
15132;SDS011;7667;51.232;17.110;2022-12-20T16:44:51;30.87;;;19.33;;
15132;SDS011;7667;51.232;17.110;2022-12-20T16:47:20;32.37;;;20.97;;
15132;SDS011;7667;51.232;17.110;2022-12-20T16:49:47;29.20;;;19.10;;
15132;SDS011;7667;51.232;17.110;2022-12-20T16:52:19;29.27;;;18.30;;
15132;SDS011;7667;51.232;17.110;2022-12-20T16:54:48;31.07;;;19.90;;
15132;SDS011;7667;51.232;17.110;2022-12-20T16:57:16;30.50;;;19.23;;
15132;SDS011;7667;51.232;17.110;2022-12-20T16:59:44;30.07;;;19.00;;
15132;SDS011;7667;51.232;17.110;2022-12-20T17:02:32;28.63;;;18.30;;
15132;SDS011;7667;51.232;17.110;2022-12-20T17:05:00;28.67;;;18.07;;
15132;SDS011;7667;51.232;17.110;2022-12-20T17:07:28;27.43;;;17.80;;
15132;SDS011;7667;51.232;17.110;2022-12-20T17:09:55;26.70;;;17.53;;